Terminal Aerodrome Forecast
Issued by NWS

Home | Current Version | Previous Version | Text Only | Print | Product List | Glossary On
Versions: 1 2 3 4 5 6 7 8 9 10 11 12 13 14 15 16 17
000
FTUS43 KAPX 211611 AAB
TAFPLN
TAF AMD
KPLN 211611Z 2116/2212 25009KT 4SM BR OVC006
     FM211800 27006KT P6SM BKN009
     FM211900 27006KT P6SM SCT012
     FM220100 VRB03KT 4SM BR SCT150
     FM220300 20004KT 2SM BR BKN120
     FM221100 22006KT 6SM BR SCT200=

USA.gov is the U.S. government's official web portal to all federal, state and local government web resources and services.